Latest Weather Observations for Strathalbyn

IDS60801

Issued at 10:01 pm CDT Thursday 23 February 2017 (issued every 30 minutes, with the page automatically refreshed every 10 minutes)

About weather observations | Map of weather stations | Latest weather observations for SA | Other Formats
Station Details ID: 024580 Name: STRATHALBYN RACECOURSE Lat: -35.28 Lon: 138.89 Height: 58.0 m
Data from the previous 72 hours. | See also: Recent months at Strathalbyn
Date/Time
CDT
Temp
°C
App
Temp
°C
Dew
Point
°C
Rel
Hum
%
Delta-T
°C
Wind Press
QNH
hPa
Press
MSL
hPa
Rain since
9am
mm
Dir  Spd
km/h
Gust
km/h
Spd
kts
Gust
kts
23/09:30pm 17.5 14.7 11.3 67 3.4 S 17 22 9 12 1024.1 1023.9 0.0
23/09:00pm 17.6 14.4 11.4 67 3.4 S 19 24 10 13 1023.6 1023.4 0.0
23/08:30pm 17.5 14.1 11.3 67 3.4 SSW 20 24 11 13 1023.1 1022.9 0.0
23/08:00pm 17.5 14.1 11.1 66 3.5 SSW 20 28 11 15 1022.7 1022.5 0.0
23/07:30pm 18.3 14.2 11.4 64 3.8 SSW 24 30 13 16 1022.4 1022.2 0.0
23/07:00pm 18.7 14.0 10.8 60 4.3 SSW 26 35 14 19 1021.9 1021.7 0.0
23/06:30pm 19.6 15.3 10.6 56 4.9 SSW 24 33 13 18 1021.6 1021.4 0.0
23/06:00pm 20.2 15.9 10.6 54 5.2 S 24 30 13 16 1021.4 1021.2 0.0
23/05:30pm 20.6 16.4 9.8 50 5.8 S 22 30 12 16 1021.1 1020.9 0.0
23/05:00pm 21.7 18.1 11.7 53 5.6 S 22 32 12 17 1020.9 1020.7 0.0
23/04:30pm 21.4 17.8 12.0 55 5.3 SSW 22 32 12 17 1020.9 1020.7 0.0
23/04:00pm 20.9 17.7 11.8 56 5.1 S 20 28 11 15 1020.8 1020.6 0.0
23/03:30pm 21.0 17.9 12.2 57 4.9 S 20 30 11 16 1020.8 1020.6 0.0
23/03:00pm 20.9 18.7 12.1 57 4.9 S 15 22 8 12 1020.8 1020.6 0.0
23/02:30pm 21.9 18.4 12.2 54 5.5 SE 22 33 12 18 1020.7 1020.5 0.0
23/02:00pm 22.1 20.5 11.5 51 5.9 SSW 11 20 6 11 1020.7 1020.5 0.0
23/01:30pm 22.1 20.9 14.0 60 4.7 SW 13 20 7 11 1020.8 1020.6 0.0
23/01:00pm 20.6 17.7 12.8 61 4.4 SSW 20 28 11 15 1020.9 1020.7 0.0
23/12:30pm 20.8 18.8 12.8 60 4.5 SSW 15 24 8 13 1021.1 1020.9 0.0
23/12:00pm 18.9 16.0 12.9 68 3.4 SSW 20 28 11 15 1021.4 1021.2 0.0
23/11:30am 19.3 17.0 13.0 67 3.6 S 17 20 9 11 1021.4 1021.2 0.0
23/11:00am 18.1 15.5 13.8 76 2.5 S 20 28 11 15 1021.5 1021.3 0.0
23/10:30am 18.6 15.8 13.2 71 3.0 SSW 20 26 11 14 1021.2 1021.0 0.0
23/10:00am 19.3 17.1 12.1 63 4.0 SW 15 24 8 13 1020.7 1020.5 0.0
23/09:30am 18.5 16.8 12.3 67 3.4 WSW 13 19 7 10 1020.5 1020.3 0.0
23/09:00am 17.9 15.6 11.9 68 3.3 SW 15 20 8 11 1020.1 1019.9 0.0
23/08:30am 17.9 15.3 11.9 68 3.3 WSW 17 24 9 13 1019.5 1019.4 0.0
23/08:00am 17.1 14.4 11.8 71 2.9 W 17 24 9 13 1019.0 1018.9 0.0
23/07:30am 15.8 12.8 11.8 77 2.2 W 19 24 10 13 1018.4 1018.2 0.0
23/07:00am 15.4 12.1 11.6 78 2.1 W 20 30 11 16 1018.0 1017.8 0.0
23/06:30am 15.5 12.2 11.7 78 2.1 W 20 28 11 15 1017.5 1017.3 0.0
23/06:00am 15.4 13.1 11.6 78 2.0 WSW 15 24 8 13 1016.9 1016.7 0.0
23/05:30am 15.6 13.4 12.0 79 2.0 WSW 15 26 8 14 1016.6 1016.4 0.0
23/05:00am 15.9 13.3 12.1 78 2.1 SW 17 26 9 14 1016.1 1015.9 0.0
23/04:30am 16.2 13.3 12.4 78 2.1 WSW 19 26 10 14 1016.0 1015.8 0.0
23/04:00am 15.9 13.8 12.3 79 2.0 SW 15 20 8 11 1015.9 1015.7 0.0
23/03:30am 16.2 14.7 12.0 76 2.3 WSW 11 15 6 8 1016.0 1015.8 0.0
23/03:00am 16.5 15.1 12.1 75 2.4 SW 11 15 6 8 1016.1 1015.9 0.0
23/02:30am 17.0 15.9 12.1 73 2.7 WSW 9 13 5 7 1016.0 1015.8 0.0
23/02:00am 16.9 17.1 11.8 72 2.8 S 2 7 1 4 1016.1 1015.9 0.0
23/01:30am 17.8 16.8 12.3 70 3.0 W 9 17 5 9 1015.8 1015.6 0.0
23/01:00am 18.0 16.9 12.0 68 3.3 WNW 9 20 5 11 1015.6 1015.4 0.0
23/12:30am 18.3 15.3 12.5 69 3.2 W 20 35 11 19 1015.1 1014.9 0.0
23/12:00am 18.6 11.9 12.4 67 3.5 W 39 57 21 31 1014.1 1013.9 0.0
 
Date/Time
CDT
Temp
°C
App
Temp
°C
Dew
Point
°C
Rel
Hum
%
Delta-T
°C
Wind Press
QNH
hPa
Press
MSL
hPa
Rain since
9am
mm
Dir  Spd
km/h
Gust
km/h
Spd
kts
Gust
kts
22/11:38pm 18.7 12.5 12.7 68 3.4 W 37 56 20 30 1013.9 1013.7 0.0
22/11:30pm 18.7 12.9 12.7 68 3.4 W 35 50 19 27 1014.1 1013.9 0.0
22/11:00pm 19.1 13.4 11.9 63 4.0 W 33 54 18 29 1014.4 1014.2 0.0
22/10:32pm 19.3 14.5 11.8 62 4.2 W 28 50 15 27 1014.4 1014.2 0.0
22/10:30pm 19.3 15.3 11.8 62 4.2 W 24 37 13 20 1014.5 1014.3 0.0
22/10:00pm 19.4 15.8 11.7 61 4.3 W 22 35 12 19 1014.1 1013.9 0.0
22/09:30pm 19.8 15.8 11.8 60 4.4 W 24 39 13 21 1014.2 1014.0 0.0
22/09:00pm 20.2 14.7 11.7 58 4.7 WNW 32 50 17 27 1013.4 1013.2 0.0
22/08:52pm 20.2 14.5 11.1 56 5.0 WNW 32 50 17 27 1013.2 1013.0 0.0
22/08:30pm 20.5 14.6 11.2 55 5.1 WNW 33 44 18 24 1013.0 1012.8 0.0
22/08:00pm 20.9 15.8 10.7 52 5.6 WNW 28 43 15 23 1012.8 1012.6 0.0
22/07:30pm 21.7 17.0 10.5 49 6.1 W 26 33 14 18 1012.7 1012.5 0.0
22/07:00pm 22.2 18.1 10.0 46 6.6 W 22 33 12 18 1012.4 1012.2 0.0
22/06:30pm 23.0 18.5 10.1 44 7.1 W 24 37 13 20 1012.0 1011.8 0.0
22/06:00pm 23.1 17.4 9.8 43 7.3 WNW 30 41 16 22 1011.8 1011.6 0.0
22/05:51pm 23.7 17.5 9.3 40 7.8 WNW 32 50 17 27 1011.7 1011.5 0.0
22/05:30pm 24.7 19.3 9.4 38 8.4 WNW 28 39 15 21 1011.6 1011.4 0.0
22/05:00pm 24.2 17.4 7.8 35 8.7 WNW 33 46 18 25 1011.4 1011.2 0.0
22/04:38pm 24.8 17.9 7.4 33 9.2 WNW 33 54 18 29 1011.2 1011.0 0.0
22/04:30pm 24.6 17.9 8.1 35 8.8 WNW 33 46 18 25 1011.2 1011.0 0.0
22/04:10pm 24.5 17.0 6.3 31 9.4 WNW 35 54 19 29 1011.0 1010.8 0.0
22/04:00pm 25.0 17.5 6.2 30 9.7 WNW 35 50 19 27 1010.8 1010.6 0.0
22/03:33pm 26.5 19.7 7.5 30 10.1 WNW 33 52 18 28 1010.5 1010.3 0.0
22/03:30pm 25.1 17.7 6.8 31 9.6 WNW 35 52 19 28 1010.4 1010.2 0.0
22/03:08pm 26.0 19.7 8.9 34 9.3 NW 32 50 17 27 1010.1 1009.9 0.0
22/03:00pm 25.4 18.1 8.8 35 9.0 NW 37 50 20 27 1010.0 1009.8 0.0
22/02:57pm 25.0 17.6 8.5 35 8.9 NW 37 48 20 26 1009.9 1009.7 0.0
22/02:30pm 25.3 18.6 9.6 37 8.6 W 35 54 19 29 1010.0 1009.8 0.0
22/02:18pm 25.2 19.5 9.9 38 8.4 W 30 56 16 30 1009.9 1009.7 0.0
22/02:00pm 26.4 20.5 10.5 37 8.9 WNW 32 44 17 24 1009.8 1009.6 0.0
22/01:47pm 26.7 19.6 8.2 31 10.0 WNW 35 50 19 27 1009.7 1009.5 0.0
22/01:30pm 27.8 20.0 6.6 26 11.2 WNW 37 56 20 30 1009.0 1008.8 0.0
22/01:00pm 28.3 22.3 8.6 29 10.8 WNW 30 50 16 27 1009.1 1008.9 0.0
22/12:54pm 27.4 21.5 7.3 28 10.7 WNW 28 50 15 27 1009.2 1009.0 0.0
22/12:30pm 26.4 20.6 9.3 34 9.4 W 30 44 16 24 1009.7 1009.5 0.0
22/12:00pm 25.3 21.1 12.5 45 7.4 W 26 41 14 22 1010.1 1009.9 0.0
22/11:30am 24.5 19.0 13.7 51 6.3 W 35 48 19 26 1010.3 1010.1 0.0
22/11:19am 25.5 19.3 13.7 48 7.0 W 39 57 21 31 1010.4 1010.2 0.0
22/11:12am 27.3 19.7 10.5 35 9.5 WNW 41 61 22 33 1010.0 1009.8 0.0
22/11:00am 28.6 19.4 5.5 23 12.0 NW 43 63 23 34 1009.6 1009.4 0.0
22/10:34am 29.2 17.5 0.8 16 13.7 NW 52 78 28 42 1008.9 1008.7 0.0
22/10:30am 29.9 18.6 1.4 16 14.0 NW 50 65 27 35 1008.6 1008.4 0.0
22/10:00am 30.7 21.0 0.2 14 14.7 NNW 41 61 22 33 1007.8 1007.6 0.0
22/09:36am 30.4 21.5 0.9 15 14.4 NNW 37 57 20 31 1008.0 1007.8 0.0
22/09:30am 29.9 21.5 1.4 16 14.0 NNW 35 50 19 27 1007.8 1007.6 0.0
22/09:00am 28.6 21.0 2.7 19 12.9 NNW 32 46 17 25 1007.9 1007.7 0.0
22/08:53am 28.3 21.5 3.2 20 12.6 NNW 28 46 15 25 1008.0 1007.8 0.0
22/08:30am 27.3 21.9 2.4 20 12.2 N 20 35 11 19 1007.8 1007.6 0.0
22/08:00am 24.8 19.8 3.5 25 10.5 NE 19 28 10 15 1007.8 1007.6 0.0
22/07:30am 23.6 18.4 2.4 25 10.1 NNE 19 24 10 13 1007.5 1007.3 0.0
22/07:00am 23.4 17.8 1.1 23 10.4 NNE 20 28 11 15 1007.5 1007.3 0.0
22/06:30am 22.9 18.4 1.9 25 9.9 N 15 22 8 12 1007.6 1007.4 0.0
22/06:00am 22.7 18.8 1.1 24 10.0 NNE 11 15 6 8 1007.6 1007.4 0.0
22/05:30am 21.5 17.3 1.7 27 9.2 NE 13 17 7 9 1007.6 1007.4 0.0
22/05:00am 22.1 17.7 0.6 24 9.8 NNE 13 20 7 11 1008.1 1007.9 0.0
22/04:30am 23.3 17.7 -0.2 21 10.7 NNE 19 26 10 14 1008.1 1007.9 0.0
22/04:00am 23.8 17.9 -0.5 20 11.0 NNE 20 30 11 16 1008.4 1008.2 0.0
22/03:30am 21.7 16.8 1.9 27 9.2 NE 17 20 9 11 1008.7 1008.5 0.0
22/03:00am 21.0 16.4 1.8 28 8.9 NNE 15 19 8 10 1009.4 1009.2 0.0
22/02:30am 20.9 16.7 3.6 32 8.3 NNE 15 17 8 9 1009.6 1009.4 0.0
22/02:00am 21.9 17.2 3.1 29 9.0 NNE 17 22 9 12 1010.1 1009.9 0.0
22/01:30am 21.4 17.0 4.9 34 8.1 NNE 17 24 9 13 1010.5 1010.3 0.0
22/01:00am 18.7 15.8 4.5 39 6.8 NNE 9 11 5 6 1011.1 1010.9 0.0
22/12:30am 18.5 15.3 5.0 41 6.5 N 11 13 6 7 1011.4 1011.2 0.0
22/12:00am 19.1 15.9 5.2 40 6.8 N 11 13 6 7 1011.8 1011.6 0.0
 
Date/Time
CDT
Temp
°C
App
Temp
°C
Dew
Point
°C
Rel
Hum
%
Delta-T
°C
Wind Press
QNH
hPa
Press
MSL
hPa
Rain since
9am
mm
Dir  Spd
km/h
Gust
km/h
Spd
kts
Gust
kts
21/11:30pm 18.6 15.6 6.1 44 6.2 NNE 11 13 6 7 1012.3 1012.1 0.0
21/11:00pm 19.4 16.7 5.8 41 6.7 N 9 11 5 6 1012.7 1012.5 0.0
21/10:30pm 20.1 17.4 5.4 38 7.2 N 9 11 5 6 1013.0 1012.8 0.0
21/10:00pm 21.0 17.9 5.4 36 7.7 N 11 15 6 8 1013.2 1013.0 0.0
21/09:30pm 22.9 18.9 4.9 31 9.0 NNE 15 19 8 10 1013.2 1013.0 0.0
21/09:00pm 23.1 19.9 5.1 31 9.0 NNE 11 17 6 9 1012.9 1012.7 0.0
21/08:30pm 24.8 20.8 5.1 28 10.0 NNE 15 19 8 10 1012.7 1012.5 0.0
21/08:00pm 26.1 21.8 5.1 26 10.7 NE 17 20 9 11 1012.3 1012.1 0.0
21/07:30pm 27.6 21.8 4.6 23 11.7 NE 24 32 13 17 1012.1 1011.9 0.0
21/07:00pm 28.5 23.7 5.4 23 12.0 NE 20 30 11 16 1011.8 1011.6 0.0
21/06:30pm 29.2 24.5 6.0 23 12.3 NE 20 30 11 16 1012.0 1011.8 0.0
21/06:00pm 29.6 25.7 6.9 24 12.2 NE 17 24 9 13 1012.1 1011.9 0.0
21/05:30pm 29.6 26.1 5.6 22 12.6 NNE 13 20 7 11 1012.4 1012.2 0.0
21/05:00pm 29.7 26.6 5.7 22 12.6 NE 11 22 6 12 1012.6 1012.4 0.0
21/04:30pm 29.4 24.8 5.5 22 12.5 N 19 28 10 15 1013.1 1012.9 0.0
21/04:00pm 28.9 25.8 5.7 23 12.2 ENE 11 22 6 12 1013.6 1013.4 0.0
21/03:30pm 28.9 25.8 5.7 23 12.2 NW 11 20 6 11 1014.3 1014.1 0.0
21/03:00pm 28.8 25.8 6.2 24 11.9 N 11 22 6 12 1014.8 1014.6 0.0
21/02:30pm 28.1 24.8 6.2 25 11.5 N 13 20 7 11 1015.4 1015.2 0.0
21/02:00pm 27.4 24.2 5.1 24 11.5 NE 11 20 6 11 1015.8 1015.6 0.0
21/01:30pm 26.8 24.8 7.3 29 10.4 WNW 7 17 4 9 1016.1 1015.9 0.0
21/01:00pm 25.6 22.6 5.8 28 10.2 NNE 11 20 6 11 1016.5 1016.3 0.0
21/12:30pm 25.5 22.2 6.2 29 10.0 NNE 13 19 7 10 1017.1 1016.9 0.0
21/12:00pm 24.6 21.4 6.8 32 9.3 NE 13 24 7 13 1017.7 1017.5 0.0
21/11:30am 22.9 19.1 5.8 33 8.6 NNE 15 22 8 12 1018.3 1018.1 0.0
21/11:00am 21.6 16.8 5.5 35 8.0 NNE 20 28 11 15 1018.5 1018.4 0.0
21/10:30am 20.6 16.1 6.2 39 7.2 NNE 19 26 10 14 1019.0 1018.9 0.0
21/10:00am 18.9 13.5 6.4 44 6.2 NNE 24 32 13 17 1019.0 1018.9 0.0
21/09:30am 17.2 12.5 6.1 48 5.4 NNE 20 28 11 15 1019.2 1019.1 0.0
21/09:00am 16.3 13.8 8.0 58 4.2 NNE 11 17 6 9 1019.6 1019.5 0.0
21/08:30am 13.3 11.0 7.3 67 2.9 NNE 9 11 5 6 1019.5 1019.4 0.0
21/08:00am 11.5 9.3 7.8 78 1.8 NNW 9 11 5 6 1019.5 1019.4 0.0
21/07:30am 9.0 6.6 6.8 86 1.0 NNW 9 11 5 6 1019.1 1019.0 0.0
21/07:00am 8.5 6.3 6.1 85 1.1 N 7 9 4 5 1019.1 1019.0 0.0
21/06:30am 8.4 6.2 6.0 85 1.1 NNW 7 7 4 4 1019.0 1018.9 0.0
21/06:00am 8.7 6.1 6.2 84 1.1 NNW 9 11 5 6 1018.6 1018.5 0.0
21/05:30am 9.3 6.0 6.6 83 1.3 NNW 13 15 7 8 1018.6 1018.5 0.0
21/05:00am 9.2 5.9 6.5 83 1.3 NNW 13 17 7 9 1018.8 1018.7 0.0
21/04:30am 9.2 6.3 6.5 83 1.3 NNW 11 13 6 7 1018.7 1018.6 0.0
21/04:00am 10.0 6.5 7.1 82 1.4 NNW 15 17 8 9 1018.7 1018.6 0.0
21/03:30am 9.2 5.9 6.6 84 1.2 NNW 13 15 7 8 1018.6 1018.5 0.0
21/03:00am 9.1 5.9 6.7 85 1.1 NNW 13 15 7 8 1018.7 1018.6 0.0
21/02:30am 9.3 6.0 6.6 83 1.3 NNW 13 15 7 8 1019.0 1018.9 0.0
21/02:00am 10.0 6.8 6.9 81 1.5 NW 13 15 7 8 1019.2 1019.1 0.0
21/01:30am 9.8 6.3 7.2 84 1.2 NNW 15 17 8 9 1019.2 1019.1 0.0
21/01:00am 9.9 6.4 7.2 83 1.3 NNW 15 17 8 9 1019.4 1019.3 0.0
21/12:30am 9.6 6.7 6.7 82 1.4 NNW 11 13 6 7 1019.7 1019.6 0.0
21/12:00am 9.9 7.1 6.8 81 1.5 NNW 11 13 6 7 1020.2 1020.0 0.0
 
Date/Time
CDT
Temp
°C
App
Temp
°C
Dew
Point
°C
Rel
Hum
%
Delta-T
°C
Wind Press
QNH
hPa
Press
MSL
hPa
Rain since
9am
mm
Dir  Spd
km/h
Gust
km/h
Spd
kts
Gust
kts
20/11:30pm 10.5 8.1 7.0 79 1.7 NNW 9 11 5 6 1020.1 1019.9 0.0
20/11:00pm 10.3 9.4 6.1 75 2.0 CALM 0 0 0 0 1020.1 1019.9 0.0
20/10:30pm 11.5 9.9 6.4 71 2.4 SW 4 7 2 4 1020.2 1020.0 0.0

Other Formats:

Comma delimited format used in spreadsheet applications
http://www.bom.gov.au/fwo/IDS60801/IDS60801.94814.axf

JavaScript Object Notation format (JSON) in row-major order
http://www.bom.gov.au/fwo/IDS60801/IDS60801.94814.json